createdAt,value
2022-08-10T00:04:54.254Z,16.86
2022-08-10T00:09:56.742Z,16.74
2022-08-10T00:15:00.087Z,16.64
2022-08-10T00:20:08.696Z,16.79
2022-08-10T00:25:11.696Z,17.02
2022-08-10T00:30:14.759Z,16.54
2022-08-10T00:35:18.677Z,17.08
2022-08-10T00:40:21.194Z,16.72
2022-08-10T00:45:40.141Z,16.27
2022-08-10T00:50:43.993Z,16.11
2022-08-10T00:57:12.893Z,16.15
2022-08-10T01:02:07.329Z,16.10
2022-08-10T01:06:39.639Z,16.15
2022-08-10T01:12:37.518Z,16.40
2022-08-10T01:17:14.359Z,16.03
2022-08-10T01:22:34.120Z,16.07
2022-08-10T01:27:43.318Z,16.18
2022-08-10T01:32:54.937Z,16.67
2022-08-10T01:38:04.921Z,16.22
2022-08-10T01:43:11.205Z,15.63
2022-08-10T01:48:32.153Z,15.74
2022-08-10T01:53:40.168Z,15.88
2022-08-10T01:58:45.952Z,15.45
2022-08-10T02:04:04.184Z,15.37
2022-08-10T02:09:09.166Z,15.59
2022-08-10T02:14:14.439Z,15.28
2022-08-10T02:19:20.806Z,15.26
2022-08-10T02:24:25.745Z,15.58
2022-08-10T02:29:29.439Z,15.72
2022-08-10T02:34:34.901Z,15.60
2022-08-10T02:39:38.335Z,15.78
2022-08-10T02:45:19.856Z,15.36
2022-08-10T02:50:15.744Z,15.40
2022-08-10T02:55:27.202Z,15.27
2022-08-10T03:00:36.776Z,15.37
2022-08-10T03:05:41.577Z,14.95
2022-08-10T03:10:46.163Z,14.81
2022-08-10T03:15:51.209Z,14.87
2022-08-10T03:20:56.663Z,15.16
2022-08-10T03:26:00.689Z,14.74
2022-08-10T03:31:03.807Z,14.81
2022-08-10T03:36:41.691Z,14.72
2022-08-10T03:41:35.951Z,14.77
2022-08-10T03:46:42.251Z,14.74
2022-08-10T03:51:49.237Z,14.80
2022-08-10T03:56:52.370Z,14.67
2022-08-10T04:02:46.061Z,14.80
2022-08-10T04:07:19.872Z,14.66
2022-08-10T04:12:22.675Z,14.73
2022-08-10T04:18:04.481Z,15.07
2022-08-10T04:22:53.609Z,15.14
2022-08-10T04:27:56.419Z,15.04
2022-08-10T04:33:02.219Z,15.35
2022-08-10T04:38:07.814Z,14.85
2022-08-10T04:43:13.379Z,15.86
2022-08-10T04:48:40.527Z,15.62
2022-08-10T04:54:05.904Z,16.82
2022-08-10T04:59:02.600Z,15.72
2022-08-10T05:04:37.109Z,15.25
2022-08-10T05:09:29.378Z,15.31
2022-08-10T05:14:31.968Z,15.81
2022-08-10T05:20:04.120Z,16.12
2022-08-10T05:24:58.314Z,16.85
2022-08-10T05:30:01.191Z,17.52
2022-08-10T05:35:05.980Z,17.78
2022-08-10T05:40:10.661Z,18.22
2022-08-10T05:45:21.178Z,18.28
2022-08-10T05:50:26.836Z,18.04
2022-08-10T05:55:32.259Z,18.77
2022-08-10T06:00:41.771Z,18.74
2022-08-10T06:05:49.207Z,18.84
2022-08-10T06:12:23.600Z,19.07
2022-08-10T06:16:20.254Z,19.23
2022-08-10T06:21:22.798Z,19.70
2022-08-10T06:26:26.596Z,19.66
2022-08-10T06:31:46.680Z,20.05
2022-08-10T06:36:54.132Z,20.04
2022-08-10T06:42:15.941Z,20.29
2022-08-10T06:47:23.728Z,20.67
2022-08-10T06:52:27.912Z,20.85
2022-08-10T06:57:35.497Z,20.76
2022-08-10T07:02:45.210Z,20.95
2022-08-10T07:07:49.094Z,21.24
2022-08-10T07:12:58.737Z,21.58
2022-08-10T07:18:02.834Z,21.65
2022-08-10T07:23:58.542Z,21.67
2022-08-10T07:28:32.759Z,22.00
2022-08-10T07:33:37.098Z,22.15
2022-08-10T07:38:41.484Z,22.11
2022-08-10T07:43:48.208Z,22.01
2022-08-10T07:49:00.357Z,22.47
2022-08-10T07:54:06.131Z,22.51
2022-08-10T07:59:11.905Z,22.43
2022-08-10T08:04:15.856Z,22.74
2022-08-10T08:09:19.362Z,22.67
2022-08-10T08:14:24.618Z,22.59
2022-08-10T08:19:37.494Z,23.17
2022-08-10T08:24:47.215Z,23.24
2022-08-10T08:29:53.061Z,23.28
2022-08-10T08:34:58.738Z,23.80
2022-08-10T08:40:02.032Z,24.08
2022-08-10T08:45:14.491Z,24.25
2022-08-10T08:50:32.547Z,24.41
2022-08-10T08:56:03.060Z,24.63
2022-08-10T09:01:42.272Z,24.85
2022-08-10T09:06:55.765Z,24.89
2022-08-10T09:12:13.576Z,25.17
2022-08-10T09:17:24.388Z,25.58
2022-08-10T09:22:34.840Z,25.46
2022-08-10T09:27:43.547Z,25.05
2022-08-10T09:36:15.668Z,25.70
2022-08-10T09:38:19.473Z,25.99
2022-08-10T09:43:31.936Z,25.74
2022-08-10T09:48:44.324Z,25.94
2022-08-10T09:54:06.114Z,26.21
2022-08-10T09:59:56.560Z,26.50
2022-08-10T10:04:48.555Z,26.81
2022-08-10T10:09:58.829Z,26.61
2022-08-10T10:15:24.073Z,27.24
2022-08-10T10:20:37.371Z,27.60
2022-08-10T10:25:50.909Z,27.33
2022-08-10T10:31:05.818Z,28.24
2022-08-10T10:36:21.779Z,30.69
2022-08-10T10:41:56.017Z,31.87
2022-08-10T10:47:10.811Z,31.00
2022-08-10T10:52:28.776Z,32.25
2022-08-10T10:58:00.546Z,32.92
2022-08-10T11:03:20.103Z,30.53
2022-08-10T11:08:29.464Z,34.33
2022-08-10T11:14:27.565Z,32.40
2022-08-10T11:19:08.750Z,28.76
2022-08-10T11:24:42.808Z,29.97
2022-08-10T11:29:49.895Z,31.69
2022-08-10T11:35:10.532Z,31.87
2022-08-10T11:40:21.318Z,29.54
2022-08-10T11:45:31.657Z,33.25
2022-08-10T11:50:40.292Z,33.16
2022-08-10T11:55:49.444Z,33.05
2022-08-10T12:00:53.638Z,31.52
2022-08-10T12:05:56.610Z,31.15
2022-08-10T12:11:00.713Z,32.44
2022-08-10T12:16:07.346Z,32.99
2022-08-10T12:21:21.557Z,32.41
2022-08-10T12:26:29.262Z,33.75
2022-08-10T12:31:36.108Z,33.66
2022-08-10T12:36:42.408Z,34.25
2022-08-10T12:42:00.286Z,32.98
2022-08-10T12:47:13.990Z,31.54
2022-08-10T12:52:20.405Z,30.52
2022-08-10T12:57:26.729Z,30.04
2022-08-10T13:02:33.411Z,29.00
2022-08-10T13:08:27.356Z,29.84
2022-08-10T13:13:03.932Z,31.03
2022-08-10T13:18:18.217Z,31.56
2022-08-10T13:23:24.482Z,31.86
2022-08-10T13:28:39.927Z,29.92
2022-08-10T13:34:38.863Z,28.43
2022-08-10T13:39:18.042Z,28.99
2022-08-10T13:44:32.224Z,29.61
2022-08-10T13:49:45.980Z,30.97
2022-08-10T13:54:49.385Z,30.45
2022-08-10T14:00:35.010Z,29.06
2022-08-10T14:05:27.520Z,29.06
2022-08-10T14:11:09.818Z,30.07
2022-08-10T14:16:06.828Z,29.76
2022-08-10T14:21:09.643Z,29.55
2022-08-10T14:26:15.868Z,29.82
2022-08-10T14:31:24.829Z,28.70
2022-08-10T14:36:34.120Z,29.08
2022-08-10T14:42:01.748Z,29.68
2022-08-10T14:47:52.606Z,31.28
2022-08-10T14:52:29.978Z,31.30
2022-08-10T14:57:33.617Z,31.33
2022-08-10T15:03:01.282Z,31.63
2022-08-10T15:08:05.107Z,31.03
2022-08-10T15:13:08.751Z,31.56
2022-08-10T15:18:34.323Z,30.91
2022-08-10T15:24:05.111Z,31.12
2022-08-10T15:29:24.057Z,30.64
2022-08-10T15:34:47.658Z,30.61
2022-08-10T15:40:25.691Z,29.49
2022-08-10T15:45:23.836Z,29.13
2022-08-10T15:50:32.942Z,29.35
2022-08-10T15:55:42.394Z,28.95
2022-08-10T16:00:51.497Z,28.86
2022-08-10T16:06:01.441Z,29.11
2022-08-10T16:11:09.110Z,29.11
2022-08-10T16:16:15.353Z,29.71
2022-08-10T16:21:21.567Z,29.81
2022-08-10T16:26:28.125Z,29.63
2022-08-10T16:31:35.684Z,29.26
2022-08-10T16:36:43.907Z,28.81
2022-08-10T16:42:05.241Z,28.93
2022-08-10T16:47:11.238Z,28.90
2022-08-10T16:52:16.858Z,29.46
2022-08-10T16:57:21.682Z,29.28
2022-08-10T17:02:26.708Z,29.28
2022-08-10T17:07:31.850Z,29.16
2022-08-10T17:12:36.227Z,29.40
2022-08-10T17:17:42.643Z,29.53
2022-08-10T17:22:50.497Z,29.96
2022-08-10T17:28:05.708Z,29.87
2022-08-10T17:33:14.816Z,29.26
2022-08-10T17:38:22.058Z,28.73
2022-08-10T17:43:58.483Z,28.37
2022-08-10T17:48:53.510Z,29.30
2022-08-10T17:53:59.211Z,29.29
2022-08-10T17:59:08.585Z,28.98
2022-08-10T18:04:18.598Z,28.67
2022-08-10T18:09:33.379Z,27.94
2022-08-10T18:14:37.760Z,28.61
2022-08-10T18:19:43.292Z,28.72
2022-08-10T18:24:48.419Z,27.64
2022-08-10T18:29:53.453Z,26.77
2022-08-10T18:35:01.009Z,26.35
2022-08-10T18:40:09.834Z,26.94
2022-08-10T18:45:15.535Z,25.69
2022-08-10T18:50:28.487Z,25.20
2022-08-10T18:55:46.254Z,25.41
2022-08-10T19:01:09.534Z,24.19
2022-08-10T19:06:23.451Z,23.95
2022-08-10T19:11:34.715Z,23.36
2022-08-10T19:16:47.921Z,23.14
2022-08-10T19:22:05.556Z,23.10
2022-08-10T19:27:15.999Z,22.70
2022-08-10T19:32:28.474Z,22.46
2022-08-10T19:37:38.028Z,22.25
2022-08-10T19:42:48.518Z,22.22
2022-08-10T19:47:56.823Z,22.02
2022-08-10T19:53:10.911Z,21.73
2022-08-10T19:58:19.838Z,21.60
2022-08-10T20:03:27.443Z,21.50
2022-08-10T20:08:36.219Z,21.73
2022-08-10T20:13:48.196Z,21.27
2022-08-10T20:18:55.329Z,21.52
2022-08-10T20:24:05.679Z,21.17
2022-08-10T20:29:16.539Z,21.02
2022-08-10T20:34:42.943Z,20.93
2022-08-10T20:39:50.072Z,20.78
2022-08-10T20:45:04.084Z,20.66
2022-08-10T20:50:18.790Z,20.45
2022-08-10T20:55:24.679Z,20.31
2022-08-10T21:00:47.458Z,20.12
2022-08-10T21:06:03.946Z,20.27
2022-08-10T21:11:15.142Z,19.90
2022-08-10T21:16:32.726Z,20.03
2022-08-10T21:21:59.541Z,19.68
2022-08-10T21:27:16.503Z,19.43
2022-08-10T21:32:35.597Z,20.05
2022-08-10T21:37:56.657Z,19.40
2022-08-10T21:43:44.131Z,19.31
2022-08-10T21:49:15.016Z,20.57
2022-08-10T21:54:41.160Z,19.11
2022-08-10T22:00:12.040Z,19.28
2022-08-10T22:05:38.939Z,19.32
2022-08-10T22:11:03.294Z,20.01
2022-08-10T22:16:32.959Z,18.55
2022-08-10T22:22:04.588Z,19.63
2022-08-10T22:27:47.513Z,18.57
2022-08-10T22:33:21.755Z,18.14
2022-08-10T22:39:02.234Z,17.83
2022-08-10T22:44:23.836Z,17.50
2022-08-10T22:49:25.974Z,17.43
2022-08-10T22:54:56.386Z,17.42
2022-08-10T22:59:59.519Z,17.42
2022-08-10T23:05:09.132Z,17.41
2022-08-10T23:10:15.217Z,17.62
2022-08-10T23:15:44.116Z,18.17
2022-08-10T23:20:48.803Z,18.31
2022-08-10T23:25:58.150Z,18.29
2022-08-10T23:31:02.611Z,17.54
2022-08-10T23:36:34.320Z,18.12
2022-08-10T23:41:33.167Z,17.61
2022-08-10T23:46:39.726Z,17.50
2022-08-10T23:51:55.472Z,16.85
2022-08-10T23:57:02.238Z,17.46
